Meteo Giornale » Osservazioni meteo Italia » Grazzanise

ore: 14:55 - Osservazioni Meteo Grazzanise
Lat. 41° 3' N Lon. 14° 4' E Alt. 9 metri s.l.m.

coperto_temporali Europe/Rome

25 °C

Temporale

Temp. 24 Ore

19 °C

30 °C

Sud-Ovest

14.8 Km/h

Dew point 23 °C

Umidità 88 %

Visibilità  10 Km

Il sole sorge alle ore 05:29

Il sole tramonta alle ore 20:40

Data e Ora Cielo e Fenomeni T °C DP °C Um. % Pres. hPa Vis. km Vento km/h
Oggi h: 14:55 coperto_temporali Temporale 25 23 88 1012 10 SO 14.8
Oggi h: 14:15 coperto_temporali Temporale 23 20 83 1012 10 SO 9.3
Oggi h: 13:55 nuvoloso_temporali Temporale con Pioggia 26 20 69 1012 5 N/NE 20.3
Oggi h: 12:55 nuvoloso Rovescio nelle Vicinanze 30 13 35 1012 10 N 13
Oggi h: 11:55 nuvoloso Nuvoloso 30 15 40 1012 10 N 3.7
Oggi h: 10:55 poco_nuvoloso Poco Nuvoloso 28 18 54 1012 10 N 3.7
Oggi h: 09:55 sereno Sereno 26 18 61 1012 10 N/NE 9.3
Oggi h: 08:55 sereno Sereno 24 20 78 1012 10 E/NE 11.1
Oggi h: 07:55 sereno Sereno 22 20 88 1012 10 NE 11.1
Oggi h: 06:55 poco_nuvoloso Poco Nuvoloso 20 18 88 1012 10 N 5.5
Oggi h: 05:55 poco_nuvoloso Poco Nuvoloso 19 18 93 1012 10 N 7.4
Oggi h: 04:55 poco_nuvoloso Poco Nuvoloso 20 18 88 1012 10 N 5.5
Oggi h: 03:55 nuvoloso Nuvoloso 20 18 88 1012 10 N 7.4
Oggi h: 02:55 nuvoloso Nuvoloso 21 19 88 1013 10 N 9.3
Oggi h: 00:55 molto_nuvoloso Molto Nuvoloso 21 21 100 1013 10 N 3.7
Ieri h: 23:55 molto_nuvoloso Molto Nuvoloso 22 21 94 1013 10 N 5.5
Ieri h: 22:55 molto_nuvoloso Molto Nuvoloso 22 21 94 1013 10 N 3.7
Ieri h: 21:55 molto_nuvoloso Molto Nuvoloso 23 21 88 1013 10 N 0
Ieri h: 20:55 molto_nuvoloso Molto Nuvoloso 24 21 83 1012 10 E/NE 13
Ieri h: 19:55 molto_nuvoloso Molto Nuvoloso 25 21 78 1012 10 E 11.1
Ieri h: 18:55 nuvoloso Nuvoloso 26 23 83 1012 10 E/SE 14.8
Ieri h: 17:55 nuvoloso Nuvoloso 28 24 78 1012 10 O 7.4
Ieri h: 16:55 poco_nuvoloso Poco Nuvoloso 28 23 74 1011 10 O 14.8
Ieri h: 15:55 poco_nuvoloso Poco Nuvoloso 28 23 74 1011 10 O 20.3